sensor_id;sensor_type;location;lat;lon;timestamp;P1;durP1;ratioP1;P2;durP2;ratioP2
18732;SDS011;9495;51.210;2.934;2023-06-19T00:01:47;36.28;;;30.58;;
18732;SDS011;9495;51.210;2.934;2023-06-19T00:04:17;36.35;;;28.27;;
18732;SDS011;9495;51.210;2.934;2023-06-19T00:06:46;27.83;;;23.73;;
18732;SDS011;9495;51.210;2.934;2023-06-19T00:09:14;29.92;;;23.42;;
18732;SDS011;9495;51.210;2.934;2023-06-19T00:11:43;29.50;;;22.67;;
18732;SDS011;9495;51.210;2.934;2023-06-19T00:14:12;25.80;;;18.63;;
18732;SDS011;9495;51.210;2.934;2023-06-19T00:16:40;21.75;;;18.13;;
18732;SDS011;9495;51.210;2.934;2023-06-19T00:19:09;23.42;;;18.67;;
18732;SDS011;9495;51.210;2.934;2023-06-19T00:21:39;24.33;;;16.85;;
18732;SDS011;9495;51.210;2.934;2023-06-19T00:24:09;20.95;;;17.10;;
18732;SDS011;9495;51.210;2.934;2023-06-19T00:26:38;21.38;;;17.30;;
18732;SDS011;9495;51.210;2.934;2023-06-19T00:29:09;18.83;;;14.73;;
18732;SDS011;9495;51.210;2.934;2023-06-19T00:31:38;18.65;;;14.60;;
18732;SDS011;9495;51.210;2.934;2023-06-19T00:34:07;21.10;;;17.10;;
18732;SDS011;9495;51.210;2.934;2023-06-19T00:36:35;20.48;;;16.15;;
18732;SDS011;9495;51.210;2.934;2023-06-19T00:39:08;21.50;;;14.27;;
18732;SDS011;9495;51.210;2.934;2023-06-19T00:41:37;17.63;;;13.00;;
18732;SDS011;9495;51.210;2.934;2023-06-19T00:44:06;16.00;;;11.13;;
18732;SDS011;9495;51.210;2.934;2023-06-19T00:46:35;17.08;;;11.57;;
18732;SDS011;9495;51.210;2.934;2023-06-19T00:49:05;13.77;;;10.20;;
18732;SDS011;9495;51.210;2.934;2023-06-19T00:51:33;14.90;;;9.40;;
18732;SDS011;9495;51.210;2.934;2023-06-19T00:54:03;11.52;;;8.95;;
18732;SDS011;9495;51.210;2.934;2023-06-19T00:56:33;13.43;;;9.35;;
18732;SDS011;9495;51.210;2.934;2023-06-19T00:59:08;12.45;;;10.30;;
18732;SDS011;9495;51.210;2.934;2023-06-19T01:01:43;11.70;;;10.40;;
18732;SDS011;9495;51.210;2.934;2023-06-19T01:04:12;18.23;;;12.45;;
18732;SDS011;9495;51.210;2.934;2023-06-19T01:06:43;17.33;;;13.10;;
18732;SDS011;9495;51.210;2.934;2023-06-19T01:09:18;16.88;;;14.65;;
18732;SDS011;9495;51.210;2.934;2023-06-19T01:11:50;21.33;;;16.48;;
18732;SDS011;9495;51.210;2.934;2023-06-19T01:14:25;16.83;;;14.70;;
18732;SDS011;9495;51.210;2.934;2023-06-19T01:16:55;15.07;;;13.57;;
18732;SDS011;9495;51.210;2.934;2023-06-19T01:19:24;20.48;;;14.30;;
18732;SDS011;9495;51.210;2.934;2023-06-19T01:21:53;14.98;;;13.38;;
18732;SDS011;9495;51.210;2.934;2023-06-19T01:24:23;15.50;;;13.98;;
18732;SDS011;9495;51.210;2.934;2023-06-19T01:26:52;14.85;;;13.30;;
18732;SDS011;9495;51.210;2.934;2023-06-19T01:29:20;17.40;;;13.57;;
18732;SDS011;9495;51.210;2.934;2023-06-19T01:31:50;16.60;;;14.82;;
18732;SDS011;9495;51.210;2.934;2023-06-19T01:34:25;17.23;;;15.05;;
18732;SDS011;9495;51.210;2.934;2023-06-19T01:36:54;16.88;;;14.65;;
18732;SDS011;9495;51.210;2.934;2023-06-19T01:39:25;19.20;;;15.52;;
18732;SDS011;9495;51.210;2.934;2023-06-19T01:41:55;18.58;;;16.63;;
18732;SDS011;9495;51.210;2.934;2023-06-19T01:44:24;25.75;;;19.88;;
18732;SDS011;9495;51.210;2.934;2023-06-19T01:46:53;25.27;;;20.73;;
18732;SDS011;9495;51.210;2.934;2023-06-19T01:49:21;22.55;;;20.17;;
18732;SDS011;9495;51.210;2.934;2023-06-19T01:51:50;27.48;;;21.20;;
18732;SDS011;9495;51.210;2.934;2023-06-19T01:54:18;28.38;;;21.52;;
18732;SDS011;9495;51.210;2.934;2023-06-19T01:56:48;24.83;;;22.23;;
18732;SDS011;9495;51.210;2.934;2023-06-19T01:59:16;30.05;;;23.02;;
18732;SDS011;9495;51.210;2.934;2023-06-19T02:01:45;27.65;;;24.55;;
18732;SDS011;9495;51.210;2.934;2023-06-19T02:04:14;33.42;;;26.38;;
18732;SDS011;9495;51.210;2.934;2023-06-19T02:06:42;30.17;;;25.73;;
18732;SDS011;9495;51.210;2.934;2023-06-19T02:09:11;37.83;;;28.45;;
18732;SDS011;9495;51.210;2.934;2023-06-19T02:11:39;38.17;;;30.38;;
18732;SDS011;9495;51.210;2.934;2023-06-19T02:14:09;36.13;;;30.80;;
18732;SDS011;9495;51.210;2.934;2023-06-19T02:16:38;39.40;;;33.30;;
18732;SDS011;9495;51.210;2.934;2023-06-19T02:19:10;41.60;;;33.47;;
18732;SDS011;9495;51.210;2.934;2023-06-19T02:21:38;40.95;;;32.97;;
18732;SDS011;9495;51.210;2.934;2023-06-19T02:24:07;40.25;;;33.33;;
18732;SDS011;9495;51.210;2.934;2023-06-19T02:26:36;42.22;;;34.72;;
18732;SDS011;9495;51.210;2.934;2023-06-19T02:29:04;41.75;;;35.88;;
18732;SDS011;9495;51.210;2.934;2023-06-19T02:31:34;42.17;;;35.17;;
18732;SDS011;9495;51.210;2.934;2023-06-19T02:34:02;42.22;;;33.22;;
18732;SDS011;9495;51.210;2.934;2023-06-19T02:36:31;48.60;;;36.85;;
18732;SDS011;9495;51.210;2.934;2023-06-19T02:39:03;43.25;;;36.90;;
18732;SDS011;9495;51.210;2.934;2023-06-19T02:41:32;47.53;;;35.30;;
18732;SDS011;9495;51.210;2.934;2023-06-19T02:44:01;43.75;;;35.80;;
18732;SDS011;9495;51.210;2.934;2023-06-19T02:46:29;46.45;;;36.08;;
18732;SDS011;9495;51.210;2.934;2023-06-19T02:48:59;49.38;;;37.38;;
18732;SDS011;9495;51.210;2.934;2023-06-19T02:51:28;45.40;;;35.95;;
18732;SDS011;9495;51.210;2.934;2023-06-19T02:53:56;46.92;;;37.78;;
18732;SDS011;9495;51.210;2.934;2023-06-19T02:56:26;47.30;;;36.97;;
18732;SDS011;9495;51.210;2.934;2023-06-19T02:58:55;45.63;;;36.08;;
18732;SDS011;9495;51.210;2.934;2023-06-19T03:01:23;47.75;;;36.35;;
18732;SDS011;9495;51.210;2.934;2023-06-19T03:03:52;49.78;;;38.90;;
18732;SDS011;9495;51.210;2.934;2023-06-19T03:06:22;52.13;;;39.95;;
18732;SDS011;9495;51.210;2.934;2023-06-19T03:08:52;53.70;;;38.92;;
18732;SDS011;9495;51.210;2.934;2023-06-19T03:11:20;55.38;;;41.13;;
18732;SDS011;9495;51.210;2.934;2023-06-19T03:13:50;56.17;;;40.20;;
18732;SDS011;9495;51.210;2.934;2023-06-19T03:16:19;52.13;;;39.33;;
18732;SDS011;9495;51.210;2.934;2023-06-19T03:18:48;48.20;;;38.83;;
18732;SDS011;9495;51.210;2.934;2023-06-19T03:21:19;53.55;;;40.90;;
18732;SDS011;9495;51.210;2.934;2023-06-19T03:23:49;59.45;;;46.40;;
18732;SDS011;9495;51.210;2.934;2023-06-19T03:26:18;55.85;;;44.65;;
18732;SDS011;9495;51.210;2.934;2023-06-19T03:28:47;57.78;;;46.42;;
18732;SDS011;9495;51.210;2.934;2023-06-19T03:31:15;60.38;;;45.35;;
18732;SDS011;9495;51.210;2.934;2023-06-19T03:33:44;54.80;;;43.58;;
18732;SDS011;9495;51.210;2.934;2023-06-19T03:36:13;59.45;;;44.47;;
18732;SDS011;9495;51.210;2.934;2023-06-19T03:38:41;56.90;;;43.78;;
18732;SDS011;9495;51.210;2.934;2023-06-19T03:41:11;57.67;;;44.45;;
18732;SDS011;9495;51.210;2.934;2023-06-19T03:43:40;60.03;;;46.47;;
18732;SDS011;9495;51.210;2.934;2023-06-19T03:46:08;60.15;;;48.67;;
18732;SDS011;9495;51.210;2.934;2023-06-19T03:48:37;64.38;;;48.67;;
18732;SDS011;9495;51.210;2.934;2023-06-19T03:51:05;61.30;;;47.47;;
18732;SDS011;9495;51.210;2.934;2023-06-19T03:53:34;69.05;;;49.20;;
18732;SDS011;9495;51.210;2.934;2023-06-19T03:56:02;65.43;;;48.72;;
18732;SDS011;9495;51.210;2.934;2023-06-19T03:58:33;60.05;;;44.45;;
18732;SDS011;9495;51.210;2.934;2023-06-19T04:01:01;56.92;;;43.47;;
18732;SDS011;9495;51.210;2.934;2023-06-19T04:03:31;50.65;;;39.53;;
18732;SDS011;9495;51.210;2.934;2023-06-19T04:06:00;52.47;;;39.83;;
18732;SDS011;9495;51.210;2.934;2023-06-19T04:08:29;48.97;;;38.90;;
18732;SDS011;9495;51.210;2.934;2023-06-19T04:10:57;55.88;;;40.92;;
18732;SDS011;9495;51.210;2.934;2023-06-19T04:13:26;47.67;;;38.05;;
18732;SDS011;9495;51.210;2.934;2023-06-19T04:15:56;43.58;;;36.58;;
18732;SDS011;9495;51.210;2.934;2023-06-19T04:18:24;47.55;;;36.85;;
18732;SDS011;9495;51.210;2.934;2023-06-19T04:20:53;47.35;;;36.70;;
18732;SDS011;9495;51.210;2.934;2023-06-19T04:23:22;50.95;;;39.30;;
18732;SDS011;9495;51.210;2.934;2023-06-19T04:25:50;49.13;;;37.38;;
18732;SDS011;9495;51.210;2.934;2023-06-19T04:28:19;52.78;;;39.03;;
18732;SDS011;9495;51.210;2.934;2023-06-19T04:30:47;51.00;;;38.10;;
18732;SDS011;9495;51.210;2.934;2023-06-19T04:33:17;52.83;;;40.08;;
18732;SDS011;9495;51.210;2.934;2023-06-19T04:35:48;54.53;;;38.90;;
18732;SDS011;9495;51.210;2.934;2023-06-19T04:38:16;55.67;;;40.05;;
18732;SDS011;9495;51.210;2.934;2023-06-19T04:40:44;48.60;;;36.92;;
18732;SDS011;9495;51.210;2.934;2023-06-19T04:43:13;51.85;;;37.33;;
18732;SDS011;9495;51.210;2.934;2023-06-19T04:45:41;50.40;;;37.17;;
18732;SDS011;9495;51.210;2.934;2023-06-19T04:48:10;51.85;;;37.80;;
18732;SDS011;9495;51.210;2.934;2023-06-19T04:50:40;51.45;;;36.33;;
18732;SDS011;9495;51.210;2.934;2023-06-19T04:53:08;51.50;;;37.10;;
18732;SDS011;9495;51.210;2.934;2023-06-19T04:55:38;49.45;;;37.03;;
18732;SDS011;9495;51.210;2.934;2023-06-19T04:58:06;47.78;;;35.28;;
18732;SDS011;9495;51.210;2.934;2023-06-19T05:00:35;49.42;;;36.80;;
18732;SDS011;9495;51.210;2.934;2023-06-19T05:03:03;51.53;;;36.13;;
18732;SDS011;9495;51.210;2.934;2023-06-19T05:05:32;55.15;;;38.97;;
18732;SDS011;9495;51.210;2.934;2023-06-19T05:08:02;57.13;;;37.58;;
18732;SDS011;9495;51.210;2.934;2023-06-19T05:10:31;59.83;;;38.08;;
18732;SDS011;9495;51.210;2.934;2023-06-19T05:12:59;52.80;;;34.97;;
18732;SDS011;9495;51.210;2.934;2023-06-19T05:15:30;49.85;;;35.35;;
18732;SDS011;9495;51.210;2.934;2023-06-19T05:17:58;51.05;;;37.17;;
18732;SDS011;9495;51.210;2.934;2023-06-19T05:20:27;43.28;;;32.78;;
18732;SDS011;9495;51.210;2.934;2023-06-19T05:22:55;43.47;;;31.02;;
18732;SDS011;9495;51.210;2.934;2023-06-19T05:25:25;42.90;;;30.60;;
18732;SDS011;9495;51.210;2.934;2023-06-19T05:27:54;40.20;;;30.67;;
18732;SDS011;9495;51.210;2.934;2023-06-19T05:30:22;41.45;;;31.15;;
18732;SDS011;9495;51.210;2.934;2023-06-19T05:32:51;46.70;;;30.65;;
18732;SDS011;9495;51.210;2.934;2023-06-19T05:35:19;40.17;;;30.58;;
18732;SDS011;9495;51.210;2.934;2023-06-19T05:37:48;42.35;;;30.92;;
18732;SDS011;9495;51.210;2.934;2023-06-19T05:40:17;43.30;;;30.13;;
18732;SDS011;9495;51.210;2.934;2023-06-19T05:42:47;44.25;;;31.02;;
18732;SDS011;9495;51.210;2.934;2023-06-19T05:45:15;42.30;;;31.13;;
18732;SDS011;9495;51.210;2.934;2023-06-19T05:47:44;43.33;;;29.48;;
18732;SDS011;9495;51.210;2.934;2023-06-19T05:50:12;38.50;;;28.52;;
18732;SDS011;9495;51.210;2.934;2023-06-19T05:52:41;39.20;;;27.30;;
18732;SDS011;9495;51.210;2.934;2023-06-19T05:55:10;32.17;;;25.33;;
18732;SDS011;9495;51.210;2.934;2023-06-19T05:57:39;33.78;;;24.30;;
18732;SDS011;9495;51.210;2.934;2023-06-19T06:00:09;30.58;;;24.00;;
18732;SDS011;9495;51.210;2.934;2023-06-19T06:02:40;31.27;;;24.48;;
18732;SDS011;9495;51.210;2.934;2023-06-19T06:05:09;30.42;;;22.75;;
18732;SDS011;9495;51.210;2.934;2023-06-19T06:07:38;31.98;;;22.38;;
18732;SDS011;9495;51.210;2.934;2023-06-19T06:10:07;35.85;;;23.83;;
18732;SDS011;9495;51.210;2.934;2023-06-19T06:12:36;29.70;;;22.58;;
18732;SDS011;9495;51.210;2.934;2023-06-19T06:15:05;31.92;;;23.40;;
18732;SDS011;9495;51.210;2.934;2023-06-19T06:17:35;29.50;;;21.50;;
18732;SDS011;9495;51.210;2.934;2023-06-19T06:20:04;30.08;;;21.83;;
18732;SDS011;9495;51.210;2.934;2023-06-19T06:22:38;29.10;;;23.50;;
18732;SDS011;9495;51.210;2.934;2023-06-19T06:25:07;30.15;;;22.80;;
18732;SDS011;9495;51.210;2.934;2023-06-19T06:27:39;27.67;;;22.52;;
18732;SDS011;9495;51.210;2.934;2023-06-19T06:30:08;33.70;;;22.17;;
18732;SDS011;9495;51.210;2.934;2023-06-19T06:32:39;33.15;;;22.33;;
18732;SDS011;9495;51.210;2.934;2023-06-19T06:35:08;28.42;;;21.83;;
18732;SDS011;9495;51.210;2.934;2023-06-19T06:37:37;30.90;;;23.67;;
18732;SDS011;9495;51.210;2.934;2023-06-19T06:40:06;31.85;;;22.58;;
18732;SDS011;9495;51.210;2.934;2023-06-19T06:42:38;31.27;;;23.10;;
18732;SDS011;9495;51.210;2.934;2023-06-19T06:45:07;29.52;;;20.95;;
18732;SDS011;9495;51.210;2.934;2023-06-19T06:47:36;28.88;;;18.73;;
18732;SDS011;9495;51.210;2.934;2023-06-19T06:50:08;25.23;;;17.63;;
18732;SDS011;9495;51.210;2.934;2023-06-19T06:52:37;23.52;;;16.10;;
18732;SDS011;9495;51.210;2.934;2023-06-19T06:55:06;22.27;;;16.10;;
18732;SDS011;9495;51.210;2.934;2023-06-19T06:57:36;19.80;;;15.35;;
18732;SDS011;9495;51.210;2.934;2023-06-19T07:00:05;25.40;;;15.88;;
18732;SDS011;9495;51.210;2.934;2023-06-19T07:02:37;21.95;;;14.32;;
18732;SDS011;9495;51.210;2.934;2023-06-19T07:05:08;18.70;;;13.00;;
18732;SDS011;9495;51.210;2.934;2023-06-19T07:07:37;18.75;;;13.75;;
18732;SDS011;9495;51.210;2.934;2023-06-19T07:10:06;18.20;;;14.10;;
18732;SDS011;9495;51.210;2.934;2023-06-19T07:12:35;19.08;;;14.23;;
18732;SDS011;9495;51.210;2.934;2023-06-19T07:15:11;18.35;;;13.05;;
18732;SDS011;9495;51.210;2.934;2023-06-19T07:17:39;18.98;;;14.25;;
18732;SDS011;9495;51.210;2.934;2023-06-19T07:20:10;17.25;;;13.05;;
18732;SDS011;9495;51.210;2.934;2023-06-19T07:22:38;29.15;;;14.20;;
18732;SDS011;9495;51.210;2.934;2023-06-19T07:25:07;21.92;;;15.25;;
18732;SDS011;9495;51.210;2.934;2023-06-19T07:27:37;20.02;;;14.43;;
18732;SDS011;9495;51.210;2.934;2023-06-19T07:30:07;23.23;;;14.70;;
18732;SDS011;9495;51.210;2.934;2023-06-19T07:32:41;19.80;;;14.80;;
18732;SDS011;9495;51.210;2.934;2023-06-19T07:35:11;18.30;;;14.35;;
18732;SDS011;9495;51.210;2.934;2023-06-19T07:37:39;19.45;;;14.52;;
18732;SDS011;9495;51.210;2.934;2023-06-19T07:40:08;19.13;;;14.57;;
18732;SDS011;9495;51.210;2.934;2023-06-19T07:42:37;18.90;;;14.48;;
18732;SDS011;9495;51.210;2.934;2023-06-19T07:45:10;19.92;;;13.40;;
18732;SDS011;9495;51.210;2.934;2023-06-19T07:47:39;16.52;;;12.93;;
18732;SDS011;9495;51.210;2.934;2023-06-19T07:50:08;21.52;;;14.77;;
18732;SDS011;9495;51.210;2.934;2023-06-19T07:52:38;17.13;;;13.02;;
18732;SDS011;9495;51.210;2.934;2023-06-19T07:55:07;16.98;;;14.25;;
18732;SDS011;9495;51.210;2.934;2023-06-19T07:57:36;17.02;;;13.45;;
18732;SDS011;9495;51.210;2.934;2023-06-19T08:00:05;16.67;;;13.73;;
18732;SDS011;9495;51.210;2.934;2023-06-19T08:02:38;19.80;;;14.55;;
18732;SDS011;9495;51.210;2.934;2023-06-19T08:05:07;16.85;;;11.18;;
18732;SDS011;9495;51.210;2.934;2023-06-19T08:07:37;18.48;;;14.35;;
18732;SDS011;9495;51.210;2.934;2023-06-19T08:10:06;21.98;;;13.63;;
18732;SDS011;9495;51.210;2.934;2023-06-19T08:12:40;18.20;;;14.15;;
18732;SDS011;9495;51.210;2.934;2023-06-19T08:15:10;17.80;;;13.95;;
18732;SDS011;9495;51.210;2.934;2023-06-19T08:17:40;22.30;;;14.30;;
18732;SDS011;9495;51.210;2.934;2023-06-19T08:20:09;20.42;;;14.95;;
18732;SDS011;9495;51.210;2.934;2023-06-19T08:22:39;21.10;;;14.25;;
18732;SDS011;9495;51.210;2.934;2023-06-19T08:25:07;17.92;;;14.00;;
18732;SDS011;9495;51.210;2.934;2023-06-19T08:27:37;18.20;;;13.82;;
18732;SDS011;9495;51.210;2.934;2023-06-19T08:30:06;21.73;;;14.98;;
18732;SDS011;9495;51.210;2.934;2023-06-19T08:32:35;21.25;;;14.57;;
18732;SDS011;9495;51.210;2.934;2023-06-19T08:35:04;20.38;;;13.27;;
18732;SDS011;9495;51.210;2.934;2023-06-19T08:37:33;21.10;;;14.90;;
18732;SDS011;9495;51.210;2.934;2023-06-19T08:40:03;25.02;;;15.25;;
18732;SDS011;9495;51.210;2.934;2023-06-19T08:42:35;17.75;;;14.95;;
18732;SDS011;9495;51.210;2.934;2023-06-19T08:45:06;18.98;;;14.88;;
18732;SDS011;9495;51.210;2.934;2023-06-19T08:47:35;19.92;;;14.00;;
18732;SDS011;9495;51.210;2.934;2023-06-19T08:50:04;22.20;;;14.27;;
18732;SDS011;9495;51.210;2.934;2023-06-19T08:52:32;23.30;;;14.73;;
18732;SDS011;9495;51.210;2.934;2023-06-19T08:55:02;23.05;;;14.98;;
18732;SDS011;9495;51.210;2.934;2023-06-19T08:57:35;19.60;;;13.50;;
18732;SDS011;9495;51.210;2.934;2023-06-19T09:00:05;21.15;;;12.77;;
18732;SDS011;9495;51.210;2.934;2023-06-19T09:02:40;17.85;;;13.70;;
18732;SDS011;9495;51.210;2.934;2023-06-19T09:05:13;20.60;;;12.90;;
18732;SDS011;9495;51.210;2.934;2023-06-19T09:07:42;16.08;;;12.00;;
18732;SDS011;9495;51.210;2.934;2023-06-19T09:10:14;15.85;;;11.32;;
18732;SDS011;9495;51.210;2.934;2023-06-19T09:12:44;19.58;;;11.98;;
18732;SDS011;9495;51.210;2.934;2023-06-19T09:15:26;16.83;;;11.75;;
18732;SDS011;9495;51.210;2.934;2023-06-19T09:17:59;14.95;;;11.10;;
18732;SDS011;9495;51.210;2.934;2023-06-19T09:20:29;14.88;;;10.82;;
18732;SDS011;9495;51.210;2.934;2023-06-19T09:22:58;18.52;;;12.30;;
18732;SDS011;9495;51.210;2.934;2023-06-19T09:25:28;19.73;;;11.05;;
18732;SDS011;9495;51.210;2.934;2023-06-19T09:27:56;19.08;;;12.63;;
18732;SDS011;9495;51.210;2.934;2023-06-19T09:30:25;19.50;;;12.82;;
18732;SDS011;9495;51.210;2.934;2023-06-19T09:32:54;18.83;;;11.68;;
18732;SDS011;9495;51.210;2.934;2023-06-19T09:35:22;13.38;;;9.15;;
18732;SDS011;9495;51.210;2.934;2023-06-19T09:37:51;16.85;;;11.32;;
18732;SDS011;9495;51.210;2.934;2023-06-19T09:40:21;15.40;;;10.38;;
18732;SDS011;9495;51.210;2.934;2023-06-19T09:42:51;20.05;;;11.90;;
18732;SDS011;9495;51.210;2.934;2023-06-19T09:45:24;13.85;;;8.80;;
18732;SDS011;9495;51.210;2.934;2023-06-19T09:47:56;16.92;;;11.40;;
18732;SDS011;9495;51.210;2.934;2023-06-19T09:50:25;14.40;;;9.68;;
18732;SDS011;9495;51.210;2.934;2023-06-19T09:52:56;15.68;;;10.50;;
18732;SDS011;9495;51.210;2.934;2023-06-19T09:55:25;11.82;;;9.15;;
18732;SDS011;9495;51.210;2.934;2023-06-19T09:57:58;11.00;;;8.30;;
18732;SDS011;9495;51.210;2.934;2023-06-19T10:00:29;10.73;;;7.45;;
18732;SDS011;9495;51.210;2.934;2023-06-19T10:02:59;16.77;;;9.95;;
18732;SDS011;9495;51.210;2.934;2023-06-19T10:05:31;14.32;;;10.25;;
18732;SDS011;9495;51.210;2.934;2023-06-19T10:08:02;17.02;;;11.70;;
18732;SDS011;9495;51.210;2.934;2023-06-19T10:10:31;16.63;;;10.48;;
18732;SDS011;9495;51.210;2.934;2023-06-19T10:13:12;14.25;;;9.48;;
18732;SDS011;9495;51.210;2.934;2023-06-19T10:15:42;14.55;;;8.80;;
18732;SDS011;9495;51.210;2.934;2023-06-19T10:18:13;14.32;;;10.15;;
18732;SDS011;9495;51.210;2.934;2023-06-19T10:20:44;14.75;;;10.73;;
18732;SDS011;9495;51.210;2.934;2023-06-19T10:23:15;14.65;;;11.10;;
18732;SDS011;9495;51.210;2.934;2023-06-19T10:25:46;17.25;;;11.85;;
18732;SDS011;9495;51.210;2.934;2023-06-19T10:28:17;17.15;;;11.20;;
18732;SDS011;9495;51.210;2.934;2023-06-19T10:30:54;18.45;;;11.73;;
18732;SDS011;9495;51.210;2.934;2023-06-19T10:33:23;14.80;;;10.30;;
18732;SDS011;9495;51.210;2.934;2023-06-19T10:35:53;14.93;;;11.05;;
18732;SDS011;9495;51.210;2.934;2023-06-19T10:38:22;15.75;;;11.27;;
18732;SDS011;9495;51.210;2.934;2023-06-19T10:40:50;12.95;;;10.57;;
18732;SDS011;9495;51.210;2.934;2023-06-19T10:43:21;14.55;;;10.88;;
18732;SDS011;9495;51.210;2.934;2023-06-19T10:45:51;14.77;;;9.68;;
18732;SDS011;9495;51.210;2.934;2023-06-19T10:48:20;14.60;;;10.55;;
18732;SDS011;9495;51.210;2.934;2023-06-19T10:50:50;11.98;;;9.45;;
18732;SDS011;9495;51.210;2.934;2023-06-19T10:53:25;14.80;;;10.23;;
18732;SDS011;9495;51.210;2.934;2023-06-19T10:55:54;15.38;;;9.10;;
18732;SDS011;9495;51.210;2.934;2023-06-19T10:58:24;16.58;;;11.02;;
18732;SDS011;9495;51.210;2.934;2023-06-19T11:00:53;12.00;;;10.20;;
18732;SDS011;9495;51.210;2.934;2023-06-19T11:03:21;14.30;;;11.27;;
18732;SDS011;9495;51.210;2.934;2023-06-19T11:05:50;10.80;;;9.02;;
18732;SDS011;9495;51.210;2.934;2023-06-19T11:08:20;13.90;;;9.15;;
18732;SDS011;9495;51.210;2.934;2023-06-19T11:10:49;12.30;;;8.75;;
18732;SDS011;9495;51.210;2.934;2023-06-19T11:13:18;13.98;;;9.52;;
18732;SDS011;9495;51.210;2.934;2023-06-19T11:15:49;11.52;;;8.50;;
18732;SDS011;9495;51.210;2.934;2023-06-19T11:18:18;13.65;;;10.27;;
18732;SDS011;9495;51.210;2.934;2023-06-19T11:20:47;13.85;;;9.07;;
18732;SDS011;9495;51.210;2.934;2023-06-19T11:23:17;13.27;;;10.43;;
18732;SDS011;9495;51.210;2.934;2023-06-19T11:25:52;14.40;;;11.93;;
18732;SDS011;9495;51.210;2.934;2023-06-19T11:28:26;13.95;;;11.07;;
18732;SDS011;9495;51.210;2.934;2023-06-19T11:30:58;15.25;;;10.20;;
18732;SDS011;9495;51.210;2.934;2023-06-19T11:33:28;20.60;;;10.30;;
18732;SDS011;9495;51.210;2.934;2023-06-19T11:35:59;15.18;;;10.60;;
18732;SDS011;9495;51.210;2.934;2023-06-19T11:38:29;15.02;;;10.32;;
18732;SDS011;9495;51.210;2.934;2023-06-19T11:40:57;17.73;;;9.60;;
18732;SDS011;9495;51.210;2.934;2023-06-19T11:43:26;16.20;;;10.50;;
18732;SDS011;9495;51.210;2.934;2023-06-19T11:46:01;18.08;;;10.20;;
18732;SDS011;9495;51.210;2.934;2023-06-19T11:48:30;13.52;;;10.73;;
18732;SDS011;9495;51.210;2.934;2023-06-19T11:50:59;21.42;;;10.60;;
18732;SDS011;9495;51.210;2.934;2023-06-19T11:53:28;14.18;;;9.55;;
18732;SDS011;9495;51.210;2.934;2023-06-19T11:55:57;16.42;;;9.13;;
18732;SDS011;9495;51.210;2.934;2023-06-19T11:58:26;15.65;;;9.57;;
18732;SDS011;9495;51.210;2.934;2023-06-19T12:00:54;13.65;;;9.63;;
18732;SDS011;9495;51.210;2.934;2023-06-19T12:03:24;15.95;;;10.00;;
18732;SDS011;9495;51.210;2.934;2023-06-19T12:05:53;12.63;;;9.02;;
18732;SDS011;9495;51.210;2.934;2023-06-19T12:08:22;17.45;;;11.07;;
18732;SDS011;9495;51.210;2.934;2023-06-19T12:10:51;15.15;;;10.48;;
18732;SDS011;9495;51.210;2.934;2023-06-19T12:13:20;14.10;;;9.82;;
18732;SDS011;9495;51.210;2.934;2023-06-19T12:15:49;16.48;;;11.02;;
18732;SDS011;9495;51.210;2.934;2023-06-19T12:18:20;15.30;;;10.50;;
18732;SDS011;9495;51.210;2.934;2023-06-19T12:20:50;14.80;;;10.10;;
18732;SDS011;9495;51.210;2.934;2023-06-19T12:23:18;16.45;;;11.18;;
18732;SDS011;9495;51.210;2.934;2023-06-19T12:25:47;20.00;;;10.43;;
18732;SDS011;9495;51.210;2.934;2023-06-19T12:28:16;18.23;;;11.80;;
18732;SDS011;9495;51.210;2.934;2023-06-19T12:30:45;17.95;;;11.35;;
18732;SDS011;9495;51.210;2.934;2023-06-19T12:33:15;15.57;;;11.00;;
18732;SDS011;9495;51.210;2.934;2023-06-19T12:35:44;17.60;;;11.05;;
18732;SDS011;9495;51.210;2.934;2023-06-19T12:38:14;18.48;;;9.98;;
18732;SDS011;9495;51.210;2.934;2023-06-19T12:40:44;13.85;;;10.02;;
18732;SDS011;9495;51.210;2.934;2023-06-19T12:43:13;14.43;;;9.10;;
18732;SDS011;9495;51.210;2.934;2023-06-19T12:45:41;14.43;;;9.27;;
18732;SDS011;9495;51.210;2.934;2023-06-19T12:48:10;15.85;;;10.05;;
18732;SDS011;9495;51.210;2.934;2023-06-19T12:50:38;14.30;;;9.80;;
18732;SDS011;9495;51.210;2.934;2023-06-19T12:53:07;14.60;;;10.63;;
18732;SDS011;9495;51.210;2.934;2023-06-19T12:55:37;16.25;;;10.13;;
18732;SDS011;9495;51.210;2.934;2023-06-19T12:58:25;15.35;;;10.13;;
18732;SDS011;9495;51.210;2.934;2023-06-19T13:00:54;14.88;;;9.55;;
18732;SDS011;9495;51.210;2.934;2023-06-19T13:03:23;15.38;;;10.23;;
18732;SDS011;9495;51.210;2.934;2023-06-19T13:05:52;14.00;;;9.00;;
18732;SDS011;9495;51.210;2.934;2023-06-19T13:08:20;13.38;;;9.77;;
18732;SDS011;9495;51.210;2.934;2023-06-19T13:10:50;15.68;;;8.77;;
18732;SDS011;9495;51.210;2.934;2023-06-19T13:13:18;13.05;;;8.60;;
18732;SDS011;9495;51.210;2.934;2023-06-19T13:15:47;12.32;;;8.77;;
18732;SDS011;9495;51.210;2.934;2023-06-19T13:18:17;14.98;;;9.50;;
18732;SDS011;9495;51.210;2.934;2023-06-19T13:20:45;14.38;;;9.65;;
18732;SDS011;9495;51.210;2.934;2023-06-19T13:23:15;12.15;;;8.95;;
18732;SDS011;9495;51.210;2.934;2023-06-19T13:25:44;14.60;;;8.55;;
18732;SDS011;9495;51.210;2.934;2023-06-19T13:28:14;15.65;;;9.55;;
18732;SDS011;9495;51.210;2.934;2023-06-19T13:30:42;14.05;;;8.75;;
18732;SDS011;9495;51.210;2.934;2023-06-19T13:33:11;14.77;;;9.35;;
18732;SDS011;9495;51.210;2.934;2023-06-19T13:35:39;12.45;;;8.55;;
18732;SDS011;9495;51.210;2.934;2023-06-19T13:38:08;13.07;;;8.82;;
18732;SDS011;9495;51.210;2.934;2023-06-19T13:40:37;11.98;;;8.20;;
18732;SDS011;9495;51.210;2.934;2023-06-19T13:43:05;12.75;;;9.02;;
18732;SDS011;9495;51.210;2.934;2023-06-19T13:45:35;14.73;;;9.02;;
18732;SDS011;9495;51.210;2.934;2023-06-19T13:48:05;14.00;;;9.57;;
18732;SDS011;9495;51.210;2.934;2023-06-19T13:50:34;13.85;;;8.85;;
18732;SDS011;9495;51.210;2.934;2023-06-19T13:53:02;15.27;;;8.82;;
18732;SDS011;9495;51.210;2.934;2023-06-19T13:55:31;13.88;;;8.40;;
18732;SDS011;9495;51.210;2.934;2023-06-19T13:57:59;13.20;;;8.95;;
18732;SDS011;9495;51.210;2.934;2023-06-19T14:00:28;12.63;;;9.25;;
18732;SDS011;9495;51.210;2.934;2023-06-19T14:02:58;9.98;;;8.02;;
18732;SDS011;9495;51.210;2.934;2023-06-19T14:05:27;12.38;;;9.13;;
18732;SDS011;9495;51.210;2.934;2023-06-19T14:07:55;14.60;;;8.43;;
18732;SDS011;9495;51.210;2.934;2023-06-19T14:10:24;13.35;;;8.25;;
18732;SDS011;9495;51.210;2.934;2023-06-19T14:12:53;17.27;;;8.70;;
18732;SDS011;9495;51.210;2.934;2023-06-19T14:15:21;14.38;;;9.02;;
18732;SDS011;9495;51.210;2.934;2023-06-19T14:17:50;18.25;;;9.27;;
18732;SDS011;9495;51.210;2.934;2023-06-19T14:20:20;12.65;;;8.25;;
18732;SDS011;9495;51.210;2.934;2023-06-19T14:22:49;9.88;;;8.02;;
18732;SDS011;9495;51.210;2.934;2023-06-19T14:25:18;15.60;;;8.23;;
18732;SDS011;9495;51.210;2.934;2023-06-19T14:27:47;12.57;;;7.97;;
18732;SDS011;9495;51.210;2.934;2023-06-19T14:30:15;13.25;;;7.82;;
18732;SDS011;9495;51.210;2.934;2023-06-19T14:32:44;13.25;;;8.15;;
18732;SDS011;9495;51.210;2.934;2023-06-19T14:35:13;13.38;;;8.10;;
18732;SDS011;9495;51.210;2.934;2023-06-19T14:37:43;14.52;;;8.77;;
18732;SDS011;9495;51.210;2.934;2023-06-19T14:40:12;13.30;;;8.77;;
18732;SDS011;9495;51.210;2.934;2023-06-19T14:42:40;13.85;;;9.43;;
18732;SDS011;9495;51.210;2.934;2023-06-19T14:45:09;15.88;;;8.85;;
18732;SDS011;9495;51.210;2.934;2023-06-19T14:47:41;14.10;;;8.73;;
18732;SDS011;9495;51.210;2.934;2023-06-19T14:50:10;17.35;;;9.38;;
18732;SDS011;9495;51.210;2.934;2023-06-19T14:52:38;15.32;;;9.18;;